createdAt,value
2024-05-09T00:00:31.626Z,98919.42
2024-05-09T00:03:05.609Z,98917.98
2024-05-09T00:05:32.417Z,98914.82
2024-05-09T00:07:59.180Z,98906.80
2024-05-09T00:10:33.468Z,98906.86
2024-05-09T00:13:03.811Z,98905.83
2024-05-09T00:15:30.343Z,98908.81
2024-05-09T00:17:57.412Z,98910.27
2024-05-09T00:20:28.733Z,98913.27
2024-05-09T00:23:03.297Z,98913.67
2024-05-09T00:25:30.001Z,98910.81
2024-05-09T00:27:56.576Z,98911.05
2024-05-09T00:30:31.620Z,98912.12
2024-05-09T00:33:02.007Z,98914.09
2024-05-09T00:35:28.969Z,98911.11
2024-05-09T00:37:55.692Z,98911.54
2024-05-09T00:40:30.898Z,98909.18
2024-05-09T00:43:05.844Z,98907.12
2024-05-09T00:45:33.954Z,98907.73
2024-05-09T00:48:04.002Z,98908.86
2024-05-09T00:50:36.374Z,98912.58
2024-05-09T00:53:06.183Z,98914.98
2024-05-09T00:55:34.857Z,98916.66
2024-05-09T00:58:02.390Z,98922.45
2024-05-09T01:00:37.413Z,98927.23
2024-05-09T01:03:07.002Z,98926.98
2024-05-09T01:05:33.816Z,98925.38
2024-05-09T01:08:00.565Z,98923.81
2024-05-09T01:10:33.703Z,98922.37
2024-05-09T01:13:03.124Z,98922.20
2024-05-09T01:15:29.702Z,98916.38
2024-05-09T01:17:57.956Z,98918.48
2024-05-09T01:20:36.492Z,98915.07
2024-05-09T01:23:08.982Z,98917.14
2024-05-09T01:25:35.904Z,98920.80
2024-05-09T01:28:02.490Z,98921.14
2024-05-09T01:30:34.600Z,98921.48
2024-05-09T01:33:05.068Z,98921.36
2024-05-09T01:35:32.583Z,98926.19
2024-05-09T01:37:59.535Z,98929.02
2024-05-09T01:40:36.155Z,98925.29
2024-05-09T01:43:06.097Z,98924.66
2024-05-09T01:45:32.958Z,98926.14
2024-05-09T01:47:59.879Z,98926.92
2024-05-09T01:50:36.927Z,98924.16
2024-05-09T01:53:08.065Z,98919.79
2024-05-09T01:55:34.798Z,98913.25
2024-05-09T01:58:01.388Z,98910.81
2024-05-09T02:00:36.960Z,98910.92
2024-05-09T02:03:09.438Z,98910.89
2024-05-09T02:05:36.616Z,98915.00
2024-05-09T02:08:04.224Z,98913.73
2024-05-09T02:10:32.987Z,98911.02
2024-05-09T02:13:01.111Z,98910.45
2024-05-09T02:15:27.772Z,98914.62
2024-05-09T02:17:54.603Z,98910.61
2024-05-09T02:22:51.251Z,98910.92
2024-05-09T02:25:17.959Z,98913.23
2024-05-09T02:27:44.711Z,98912.65
2024-05-09T02:30:18.764Z,98914.27
2024-05-09T02:32:52.870Z,98914.56
2024-05-09T02:35:19.829Z,98911.88
2024-05-09T02:37:46.473Z,98912.98
2024-05-09T02:40:14.995Z,98916.47
2024-05-09T02:42:44.850Z,98913.06
2024-05-09T02:45:11.454Z,98918.48
2024-05-09T02:47:38.208Z,98922.48
2024-05-09T02:50:07.794Z,98920.77
2024-05-09T02:52:34.503Z,98928.80
2024-05-09T02:55:01.056Z,98929.21
2024-05-09T02:57:27.537Z,98925.39
2024-05-09T02:59:54.453Z,98927.15
2024-05-09T03:02:21.308Z,98932.45
2024-05-09T03:04:48.353Z,98930.52
2024-05-09T03:07:14.889Z,98931.19
2024-05-09T03:09:51.059Z,98930.75
2024-05-09T03:12:17.688Z,98933.15
2024-05-09T03:14:44.546Z,98931.86
2024-05-09T03:17:11.032Z,98930.68
2024-05-09T03:19:37.729Z,98932.41
2024-05-09T03:22:05.005Z,98933.13
2024-05-09T03:24:31.530Z,98929.44
2024-05-09T03:26:57.976Z,98930.35
2024-05-09T03:29:25.135Z,98935.02
2024-05-09T03:31:51.838Z,98930.79
2024-05-09T03:34:18.583Z,98938.06
2024-05-09T03:36:45.463Z,98938.57
2024-05-09T03:39:12.228Z,98937.81
2024-05-09T03:41:39.228Z,98944.67
2024-05-09T03:44:06.097Z,98946.16
2024-05-09T03:46:37.778Z,98951.95
2024-05-09T03:49:04.447Z,98952.28
2024-05-09T03:51:32.039Z,98953.15
2024-05-09T03:53:58.638Z,98950.60
2024-05-09T03:56:25.459Z,98949.30
2024-05-09T03:58:52.575Z,98950.14
2024-05-09T04:01:19.250Z,98947.31
2024-05-09T04:03:46.256Z,98942.38
2024-05-09T04:06:20.469Z,98946.59
2024-05-09T04:08:47.076Z,98943.55
2024-05-09T04:11:14.068Z,98947.16
2024-05-09T04:13:40.721Z,98950.03
2024-05-09T04:16:10.244Z,98944.86
2024-05-09T04:18:37.374Z,98940.02
2024-05-09T04:21:04.650Z,98939.81
2024-05-09T04:23:31.433Z,98936.45
2024-05-09T04:25:58.062Z,98936.89
2024-05-09T04:28:26.215Z,98934.23
2024-05-09T04:30:52.799Z,98941.17
2024-05-09T04:33:19.619Z,98944.14
2024-05-09T04:35:46.389Z,98941.81
2024-05-09T04:38:14.027Z,98940.10
2024-05-09T04:40:41.369Z,98943.64
2024-05-09T04:43:14.650Z,98948.71
2024-05-09T04:45:41.725Z,98949.67
2024-05-09T04:48:08.614Z,98951.35
2024-05-09T04:50:38.637Z,98946.52
2024-05-09T04:53:08.681Z,98945.20
2024-05-09T04:55:36.761Z,98948.20
2024-05-09T04:58:03.850Z,98947.62
2024-05-09T05:00:36.021Z,98951.36
2024-05-09T05:03:10.621Z,98950.13
2024-05-09T05:05:39.588Z,98950.63
2024-05-09T05:08:14.684Z,98952.73
2024-05-09T05:10:42.686Z,98950.61
2024-05-09T05:13:12.608Z,98950.11
2024-05-09T05:15:39.253Z,98951.06
2024-05-09T05:18:05.966Z,98955.36
2024-05-09T05:20:33.865Z,98964.64
2024-05-09T05:23:01.173Z,98967.81
2024-05-09T05:25:27.979Z,98967.48
2024-05-09T05:27:54.618Z,98968.59
2024-05-09T05:30:28.554Z,98967.85
2024-05-09T05:32:59.414Z,98966.41
2024-05-09T05:35:26.212Z,98968.39
2024-05-09T05:37:52.997Z,98975.23
2024-05-09T05:40:28.151Z,98977.35
2024-05-09T05:43:02.837Z,98972.64
2024-05-09T05:45:29.494Z,98966.70
2024-05-09T05:47:56.486Z,98971.45
2024-05-09T05:50:28.070Z,98968.58
2024-05-09T05:53:02.009Z,98966.52
2024-05-09T05:55:28.570Z,98965.19
2024-05-09T05:57:55.086Z,98965.52
2024-05-09T06:00:29.697Z,98966.83
2024-05-09T06:03:05.280Z,98960.14
2024-05-09T06:05:32.363Z,98967.02
2024-05-09T06:07:59.600Z,98970.22
2024-05-09T06:10:34.896Z,98964.08
2024-05-09T06:13:05.620Z,98965.34
2024-05-09T06:15:32.408Z,98964.22
2024-05-09T06:17:59.479Z,98959.14
2024-05-09T06:20:34.713Z,98959.70
2024-05-09T06:23:04.392Z,98962.55
2024-05-09T06:25:31.388Z,98961.10
2024-05-09T06:27:58.944Z,98961.48
2024-05-09T06:30:30.845Z,98958.98
2024-05-09T06:33:05.979Z,98960.11
2024-05-09T06:35:33.911Z,98958.91
2024-05-09T06:38:00.955Z,98960.02
2024-05-09T06:40:36.256Z,98960.23
2024-05-09T06:43:10.346Z,98961.43
2024-05-09T06:45:36.891Z,98959.79
2024-05-09T06:48:03.803Z,98959.28
2024-05-09T06:50:36.849Z,98955.37
2024-05-09T06:53:05.309Z,98958.36
2024-05-09T06:55:32.017Z,98959.66
2024-05-09T06:57:58.821Z,98955.33
2024-05-09T07:00:35.739Z,98957.36
2024-05-09T07:03:10.798Z,98961.21
2024-05-09T07:05:38.539Z,98960.39
2024-05-09T07:08:06.446Z,98959.02
2024-05-09T07:10:35.577Z,98953.35
2024-05-09T07:13:03.233Z,98952.20
2024-05-09T07:15:29.771Z,98954.55
2024-05-09T07:17:56.572Z,98950.79
2024-05-09T07:20:32.007Z,98952.34
2024-05-09T07:23:02.955Z,98949.44
2024-05-09T07:25:30.025Z,98952.11
2024-05-09T07:27:56.795Z,98948.14
2024-05-09T07:30:27.937Z,98947.69
2024-05-09T07:33:00.186Z,98946.89
2024-05-09T07:35:27.517Z,98943.58
2024-05-09T07:37:54.418Z,98941.69
2024-05-09T07:40:31.583Z,98942.67
2024-05-09T07:43:07.545Z,98936.52
2024-05-09T07:52:23.605Z,98932.19
2024-05-09T07:53:38.700Z,98931.17
2024-05-09T07:56:09.105Z,98934.63
2024-05-09T07:58:36.608Z,98935.87
2024-05-09T08:01:03.718Z,98937.15
2024-05-09T08:03:31.189Z,98940.52
2024-05-09T08:05:57.883Z,98939.81
2024-05-09T08:08:24.554Z,98940.81
2024-05-09T08:10:51.379Z,98940.55
2024-05-09T08:13:18.068Z,98939.77
2024-05-09T08:15:44.969Z,98935.65
2024-05-09T08:18:12.154Z,98924.49
2024-05-09T08:20:40.617Z,98932.98
2024-05-09T08:23:07.663Z,98932.09
2024-05-09T08:25:34.414Z,98929.73
2024-05-09T08:28:01.106Z,98930.41
2024-05-09T08:30:33.699Z,98929.16
2024-05-09T08:33:04.621Z,98931.84
2024-05-09T08:35:31.865Z,98928.58
2024-05-09T08:37:58.602Z,98927.95
2024-05-09T08:40:32.887Z,98928.30
2024-05-09T08:43:04.475Z,98937.25
2024-05-09T08:45:34.888Z,98936.64
2024-05-09T08:48:02.738Z,98931.56
2024-05-09T08:50:36.567Z,98934.93
2024-05-09T08:53:06.316Z,98926.09
2024-05-09T08:55:33.028Z,98924.29
2024-05-09T08:58:02.648Z,98924.28
2024-05-09T09:00:36.708Z,98924.98
2024-05-09T09:03:09.239Z,98920.54
2024-05-09T09:05:39.161Z,98921.81
2024-05-09T09:08:07.364Z,98915.91
2024-05-09T09:10:34.661Z,98917.86
2024-05-09T09:13:01.896Z,98916.38
2024-05-09T09:15:28.782Z,98918.60
2024-05-09T09:18:00.712Z,98913.36
2024-05-09T09:20:35.410Z,98913.84
2024-05-09T09:23:03.671Z,98918.37
2024-05-09T09:25:30.645Z,98914.27
2024-05-09T09:27:58.298Z,98921.36
2024-05-09T09:30:34.978Z,98918.05
2024-05-09T09:33:05.942Z,98917.73
2024-05-09T09:35:32.968Z,98916.60
2024-05-09T09:38:03.505Z,98924.48
2024-05-09T09:40:35.841Z,98921.34
2024-05-09T09:43:11.811Z,98916.12
2024-05-09T09:45:39.592Z,98920.66
2024-05-09T09:48:07.816Z,98920.77
2024-05-09T09:50:35.725Z,98918.77
2024-05-09T09:53:04.754Z,98927.84
2024-05-09T09:55:32.942Z,98922.30
2024-05-09T09:57:59.568Z,98915.73
2024-05-09T10:00:32.604Z,98915.52
2024-05-09T10:03:00.718Z,98917.96
2024-05-09T10:05:28.307Z,98917.27
2024-05-09T10:07:56.241Z,98915.86
2024-05-09T10:10:30.397Z,98916.49
2024-05-09T10:13:07.652Z,98916.84
2024-05-09T10:16:10.390Z,98915.90
2024-05-09T10:18:38.822Z,98914.48
2024-05-09T10:21:18.822Z,98914.63
2024-05-09T10:24:06.033Z,98917.67
2024-05-09T10:26:35.454Z,98914.91
2024-05-09T10:29:15.317Z,98907.27
2024-05-09T10:31:43.926Z,98907.33
2024-05-09T10:34:23.282Z,98914.70
2024-05-09T10:36:53.923Z,98913.45
2024-05-09T10:39:21.758Z,98918.16
2024-05-09T10:41:49.400Z,98913.05
2024-05-09T10:44:16.653Z,98912.47
2024-05-09T10:46:44.630Z,98902.67
2024-05-09T10:49:14.763Z,98900.59
2024-05-09T10:51:42.267Z,98896.85
2024-05-09T10:54:08.969Z,98895.60
2024-05-09T10:56:35.509Z,98905.60
2024-05-09T10:59:05.774Z,98903.73
2024-05-09T11:01:32.663Z,98900.96
2024-05-09T11:03:59.712Z,98897.63
2024-05-09T11:06:26.696Z,98897.58
2024-05-09T11:08:53.784Z,98892.30
2024-05-09T11:11:21.209Z,98889.35
2024-05-09T11:13:47.869Z,98899.30
2024-05-09T11:16:19.428Z,98904.76
2024-05-09T11:18:57.228Z,98902.24
2024-05-09T11:21:25.023Z,98896.55
2024-05-09T11:23:51.941Z,98893.70
2024-05-09T11:26:19.481Z,98892.50
2024-05-09T11:28:46.343Z,98886.99
2024-05-09T11:31:12.928Z,98888.16
2024-05-09T11:33:43.111Z,98889.99
2024-05-09T11:36:10.265Z,98884.63
2024-05-09T11:38:37.318Z,98881.27
2024-05-09T11:41:05.097Z,98875.75
2024-05-09T11:43:32.193Z,98877.85
2024-05-09T11:45:59.466Z,98874.54
2024-05-09T11:48:27.254Z,98875.84
2024-05-09T11:50:55.315Z,98874.95
2024-05-09T11:53:22.217Z,98876.90
2024-05-09T11:55:48.829Z,98875.36
2024-05-09T11:58:15.694Z,98878.90
2024-05-09T12:00:42.855Z,98876.45
2024-05-09T12:03:09.630Z,98882.02
2024-05-09T12:05:36.390Z,98878.77
2024-05-09T12:08:03.380Z,98874.91
2024-05-09T12:10:33.492Z,98871.67
2024-05-09T12:13:04.797Z,98867.65
2024-05-09T12:15:32.944Z,98866.08
2024-05-09T12:18:02.717Z,98859.18
2024-05-09T12:20:36.647Z,98856.99
2024-05-09T12:23:05.874Z,98858.16
2024-05-09T12:25:32.527Z,98861.53
2024-05-09T12:27:59.792Z,98864.34
2024-05-09T12:30:35.350Z,98859.82
2024-05-09T12:33:07.082Z,98864.27
2024-05-09T12:35:33.955Z,98862.31
2024-05-09T12:38:02.671Z,98858.84
2024-05-09T12:40:36.227Z,98861.05
2024-05-09T12:43:07.223Z,98857.54
2024-05-09T12:45:34.398Z,98849.61
2024-05-09T12:48:01.235Z,98854.98
2024-05-09T12:50:32.755Z,98847.76
2024-05-09T12:53:02.037Z,98843.64
2024-05-09T12:55:33.946Z,98839.11
2024-05-09T12:58:08.133Z,98836.16
2024-05-09T13:00:35.060Z,98832.81
2024-05-09T13:03:02.215Z,98828.60
2024-05-09T13:05:29.524Z,98827.94
2024-05-09T13:07:56.936Z,98834.84
2024-05-09T13:10:31.141Z,98828.61
2024-05-09T13:13:00.938Z,98830.83
2024-05-09T13:15:28.469Z,98833.48
2024-05-09T13:17:59.004Z,98824.44
2024-05-09T13:20:32.900Z,98818.08
2024-05-09T13:23:03.192Z,98815.70
2024-05-09T13:25:30.108Z,98812.97
2024-05-09T13:27:57.691Z,98811.83
2024-05-09T13:32:54.621Z,98816.70
2024-05-09T13:35:21.388Z,98810.64
2024-05-09T13:37:48.144Z,98812.96
2024-05-09T13:40:14.895Z,98809.63
2024-05-09T13:42:45.148Z,98802.48
2024-05-09T13:45:13.195Z,98806.00
2024-05-09T13:47:40.094Z,98802.45
2024-05-09T13:50:11.404Z,98804.12
2024-05-09T13:52:40.580Z,98799.73
2024-05-09T13:55:07.391Z,98793.85
2024-05-09T13:57:34.324Z,98795.42
2024-05-09T14:00:01.207Z,98794.90
2024-05-09T14:02:28.039Z,98793.31
2024-05-09T14:04:54.944Z,98795.29
2024-05-09T14:07:21.821Z,98792.48
2024-05-09T14:09:48.541Z,98791.16
2024-05-09T14:12:15.065Z,98789.02
2024-05-09T14:14:41.712Z,98787.73
2024-05-09T14:17:08.599Z,98787.43
2024-05-09T14:19:35.207Z,98776.70
2024-05-09T14:22:01.838Z,98786.63
2024-05-09T14:24:28.549Z,98790.55
2024-05-09T14:26:55.128Z,98796.96
2024-05-09T14:29:21.667Z,98785.98
2024-05-09T14:31:48.308Z,98785.98
2024-05-09T14:34:15.304Z,98788.05
2024-05-09T14:36:42.258Z,98785.71
2024-05-09T14:39:09.065Z,98782.26
2024-05-09T14:41:35.612Z,98783.66
2024-05-09T14:44:02.078Z,98790.13
2024-05-09T14:46:28.744Z,98789.67
2024-05-09T14:48:55.579Z,98779.00
2024-05-09T14:51:22.187Z,98771.62
2024-05-09T14:53:48.734Z,98770.80
2024-05-09T14:56:15.377Z,98768.62
2024-05-09T14:58:41.908Z,98770.98
2024-05-09T15:01:08.445Z,98763.71
2024-05-09T15:03:35.116Z,98770.10
2024-05-09T15:06:01.921Z,98767.72
2024-05-09T15:08:28.605Z,98763.48
2024-05-09T15:10:55.445Z,98762.68
2024-05-09T15:13:22.158Z,98758.80
2024-05-09T15:15:48.958Z,98756.10
2024-05-09T15:18:16.293Z,98754.91
2024-05-09T15:20:44.206Z,98751.02
2024-05-09T15:23:11.025Z,98748.95
2024-05-09T15:25:37.571Z,98746.67
2024-05-09T15:28:05.359Z,98746.05
2024-05-09T15:30:33.751Z,98748.34
2024-05-09T15:33:02.042Z,98751.93
2024-05-09T15:35:29.301Z,98752.20
2024-05-09T15:37:56.524Z,98747.25
2024-05-09T15:40:31.628Z,98746.95
2024-05-09T15:43:06.138Z,98738.87
2024-05-09T15:45:34.702Z,98734.36
2024-05-09T15:48:02.345Z,98732.66
2024-05-09T15:50:36.886Z,98734.47
2024-05-09T15:53:08.297Z,98729.56
2024-05-09T15:55:35.770Z,98729.91
2024-05-09T15:58:04.318Z,98728.26
2024-05-09T16:00:38.699Z,98729.05
2024-05-09T16:03:09.446Z,98724.93
2024-05-09T16:05:36.924Z,98727.36
2024-05-09T16:08:04.423Z,98727.23
2024-05-09T16:13:46.930Z,98733.48
2024-05-09T16:16:13.755Z,98733.45
2024-05-09T16:18:40.659Z,98735.70
2024-05-09T16:21:08.103Z,98733.27
2024-05-09T16:23:34.635Z,98731.34
2024-05-09T16:26:01.192Z,98738.13
2024-05-09T16:28:27.747Z,98735.42
2024-05-09T16:30:54.535Z,98741.54
2024-05-09T16:33:21.366Z,98743.41
2024-05-09T16:35:48.155Z,98745.85
2024-05-09T16:38:14.817Z,98742.54
2024-05-09T16:40:41.773Z,98745.29
2024-05-09T16:43:10.596Z,98745.98
2024-05-09T16:45:40.177Z,98741.47
2024-05-09T16:48:08.359Z,98744.73
2024-05-09T16:50:36.138Z,98745.06
2024-05-09T16:53:04.755Z,98748.80
2024-05-09T16:55:32.170Z,98747.27
2024-05-09T16:57:59.211Z,98750.83
2024-05-09T17:00:35.951Z,98753.91
2024-05-09T17:03:09.771Z,98756.41
2024-05-09T17:05:37.052Z,98754.50
2024-05-09T17:08:04.323Z,98757.56
2024-05-09T17:10:33.795Z,98754.98
2024-05-09T17:13:03.589Z,98754.48
2024-05-09T17:15:32.194Z,98756.71
2024-05-09T17:17:59.123Z,98757.86
2024-05-09T17:20:32.247Z,98756.36
2024-05-09T17:23:03.069Z,98758.09
2024-05-09T17:25:29.741Z,98758.25
2024-05-09T17:27:57.066Z,98754.94
2024-05-09T17:30:32.105Z,98756.32
2024-05-09T17:33:03.984Z,98756.67
2024-05-09T17:35:32.114Z,98756.91
2024-05-09T17:37:59.170Z,98757.98
2024-05-09T17:40:32.490Z,98756.24
2024-05-09T17:43:02.704Z,98761.27
2024-05-09T17:45:29.560Z,98761.09
2024-05-09T17:47:56.773Z,98758.45
2024-05-09T17:50:30.367Z,98759.06
2024-05-09T17:53:01.540Z,98758.48
2024-05-09T17:55:28.756Z,98760.33
2024-05-09T17:57:55.597Z,98759.96
2024-05-09T18:00:32.708Z,98757.46
2024-05-09T18:03:05.903Z,98761.90
2024-05-09T18:05:33.174Z,98757.34
2024-05-09T18:08:00.050Z,98760.33
2024-05-09T18:10:33.695Z,98770.27
2024-05-09T18:13:04.329Z,98768.98
2024-05-09T18:15:31.018Z,98776.12
2024-05-09T18:18:00.368Z,98778.75
2024-05-09T18:22:56.432Z,98785.92
2024-05-09T18:25:23.055Z,98788.80
2024-05-09T18:27:50.067Z,98792.56
2024-05-09T18:30:23.905Z,98795.58
2024-05-09T18:32:54.998Z,98804.63
2024-05-09T18:35:21.754Z,98808.34
2024-05-09T18:37:48.384Z,98807.71
2024-05-09T18:40:21.127Z,98811.29
2024-05-09T18:42:54.913Z,98814.23
2024-05-09T18:45:21.526Z,98815.31
2024-05-09T18:47:48.261Z,98817.58
2024-05-09T18:50:21.019Z,98815.73
2024-05-09T18:52:55.487Z,98826.07
2024-05-09T18:55:22.094Z,98823.98
2024-05-09T18:57:48.715Z,98828.08
2024-05-09T19:00:26.779Z,98829.14
2024-05-09T19:03:00.705Z,98833.90
2024-05-09T19:05:27.849Z,98835.33
2024-05-09T19:07:54.644Z,98831.79
2024-05-09T19:10:23.059Z,98833.73
2024-05-09T19:12:52.897Z,98834.05
2024-05-09T19:15:19.570Z,98836.48
2024-05-09T19:17:47.182Z,98840.02
2024-05-09T19:20:24.766Z,98844.04
2024-05-09T19:22:56.410Z,98843.59
2024-05-09T19:25:22.949Z,98850.07
2024-05-09T19:27:49.467Z,98854.91
2024-05-09T19:30:25.099Z,98855.80
2024-05-09T19:33:00.829Z,98858.96
2024-05-09T19:35:27.444Z,98864.92
2024-05-09T19:37:53.986Z,98869.27
2024-05-09T19:40:28.633Z,98869.39
2024-05-09T19:42:58.466Z,98871.02
2024-05-09T19:45:25.176Z,98875.98
2024-05-09T19:47:51.951Z,98872.05
2024-05-09T19:50:26.665Z,98874.84
2024-05-09T19:52:59.561Z,98876.25
2024-05-09T19:55:26.322Z,98881.39
2024-05-09T19:57:52.933Z,98884.65
2024-05-09T20:00:26.284Z,98881.60
2024-05-09T20:02:58.868Z,98880.55
2024-05-09T20:05:26.253Z,98884.92
2024-05-09T20:07:53.461Z,98881.85
2024-05-09T20:10:23.949Z,98880.33
2024-05-09T20:12:55.911Z,98881.38
2024-05-09T20:15:22.505Z,98884.84
2024-05-09T20:17:49.176Z,98886.63
2024-05-09T20:20:27.362Z,98888.67
2024-05-09T20:23:00.099Z,98888.76
2024-05-09T20:25:26.809Z,98888.55
2024-05-09T20:27:53.407Z,98887.92
2024-05-09T20:30:28.676Z,98888.77
2024-05-09T20:32:59.785Z,98894.41
2024-05-09T20:35:26.850Z,98897.10
2024-05-09T20:37:53.490Z,98899.23
2024-05-09T20:40:28.282Z,98902.02
2024-05-09T20:42:59.282Z,98898.35
2024-05-09T20:45:26.440Z,98900.90
2024-05-09T20:47:53.214Z,98897.86
2024-05-09T20:50:28.432Z,98896.71
2024-05-09T20:53:02.976Z,98902.95
2024-05-09T20:55:29.819Z,98903.52
2024-05-09T20:57:56.869Z,98902.77
2024-05-09T21:00:30.275Z,98900.20
2024-05-09T21:03:06.837Z,98897.05
2024-05-09T21:05:34.253Z,98899.34
2024-05-09T21:08:01.290Z,98898.93
2024-05-09T21:10:32.679Z,98895.05
2024-05-09T21:13:01.665Z,98897.89
2024-05-09T21:15:29.025Z,98899.58
2024-05-09T21:17:55.595Z,98898.91
2024-05-09T21:20:28.603Z,98901.36
2024-05-09T21:22:58.224Z,98900.40
2024-05-09T21:25:24.949Z,98903.40
2024-05-09T21:27:51.710Z,98906.36
2024-05-09T21:30:27.331Z,98901.05
2024-05-09T21:32:59.920Z,98908.66
2024-05-09T21:35:26.549Z,98909.91
2024-05-09T21:37:53.312Z,98914.55
2024-05-09T21:40:27.114Z,98915.41
2024-05-09T21:43:00.944Z,98914.45
2024-05-09T21:45:27.673Z,98916.23
2024-05-09T21:47:54.531Z,98916.92
2024-05-09T21:50:28.009Z,98918.53
2024-05-09T21:52:59.257Z,98917.80
2024-05-09T21:55:26.057Z,98917.30
2024-05-09T21:57:52.802Z,98914.98
2024-05-09T22:00:28.832Z,98914.59
2024-05-09T22:03:02.512Z,98920.14
2024-05-09T22:05:29.731Z,98921.55
2024-05-09T22:07:56.643Z,98922.64
2024-05-09T22:10:30.490Z,98923.21
2024-05-09T22:13:00.729Z,98924.33
2024-05-09T22:15:27.502Z,98925.48
2024-05-09T22:17:56.168Z,98924.36
2024-05-09T22:20:29.446Z,98924.70
2024-05-09T22:23:03.308Z,98923.83
2024-05-09T22:25:31.147Z,98929.27
2024-05-09T22:27:58.771Z,98921.48
2024-05-09T22:30:34.197Z,98919.89
2024-05-09T22:33:06.155Z,98920.21
2024-05-09T22:35:33.121Z,98918.50
2024-05-09T22:38:00.101Z,98917.36
2024-05-09T22:40:37.738Z,98917.97
2024-05-09T22:43:12.760Z,98921.14
2024-05-09T22:45:39.579Z,98918.97
2024-05-09T22:48:07.776Z,98919.15
2024-05-09T22:50:34.767Z,98914.02
2024-05-09T22:53:01.474Z,98913.04
2024-05-09T22:55:28.395Z,98911.18
2024-05-09T22:57:55.236Z,98914.98
2024-05-09T23:00:29.064Z,98913.11
2024-05-09T23:02:59.830Z,98910.98
2024-05-09T23:05:26.696Z,98909.55
2024-05-09T23:07:53.529Z,98909.65
2024-05-09T23:10:27.482Z,98912.40
2024-05-09T23:12:59.112Z,98914.36
2024-05-09T23:15:25.746Z,98914.38
2024-05-09T23:17:52.594Z,98917.14
2024-05-09T23:20:29.729Z,98916.03
2024-05-09T23:23:03.292Z,98913.86
2024-05-09T23:25:29.741Z,98913.64
2024-05-09T23:27:56.298Z,98916.98
2024-05-09T23:30:33.042Z,98919.34
2024-05-09T23:33:05.172Z,98919.90
2024-05-09T23:35:31.983Z,98927.46
2024-05-09T23:37:58.560Z,98929.36
2024-05-09T23:40:36.402Z,98925.77
2024-05-09T23:43:06.462Z,98926.44
2024-05-09T23:45:33.486Z,98923.73
2024-05-09T23:48:00.693Z,98921.26
2024-05-09T23:50:34.360Z,98917.64
2024-05-09T23:53:04.651Z,98916.89
2024-05-09T23:55:31.534Z,98916.70
2024-05-09T23:57:58.546Z,98916.54
